sensor_id;sensor_type;location;lat;lon;timestamp;pressure;altitude;pressure_sealevel;temperature;humidity
60240;BME280;46102;39.012;-7.064;2023-02-28T00:00:28;98725.69;;;7.14;36.28
60240;BME280;46102;39.012;-7.064;2023-02-28T00:02:29;98722.75;;;7.10;36.55
60240;BME280;46102;39.012;-7.064;2023-02-28T00:04:29;98730.69;;;7.06;36.79
60240;BME280;46102;39.012;-7.064;2023-02-28T00:06:30;98732.34;;;7.02;37.31
60240;BME280;46102;39.012;-7.064;2023-02-28T00:08:31;98736.53;;;6.95;37.33
60240;BME280;46102;39.012;-7.064;2023-02-28T00:10:32;98738.28;;;6.85;37.21
60240;BME280;46102;39.012;-7.064;2023-02-28T00:12:34;98734.75;;;6.85;37.32
60240;BME280;46102;39.012;-7.064;2023-02-28T00:14:35;98741.34;;;6.79;37.34
60240;BME280;46102;39.012;-7.064;2023-02-28T00:16:35;98734.28;;;6.78;37.45
60240;BME280;46102;39.012;-7.064;2023-02-28T00:18:37;98744.66;;;6.76;37.52
60240;BME280;46102;39.012;-7.064;2023-02-28T00:20:37;98750.09;;;6.76;37.68
60240;BME280;46102;39.012;-7.064;2023-02-28T00:22:40;98741.34;;;6.79;37.68
60240;BME280;46102;39.012;-7.064;2023-02-28T00:24:41;98747.94;;;6.73;37.85
60240;BME280;46102;39.012;-7.064;2023-02-28T00:26:42;98752.53;;;6.77;38.03
60240;BME280;46102;39.012;-7.064;2023-02-28T00:28:43;98748.00;;;6.67;38.15
60240;BME280;46102;39.012;-7.064;2023-02-28T00:30:43;98745.06;;;6.59;38.72
60240;BME280;46102;39.012;-7.064;2023-02-28T00:32:44;98745.38;;;6.52;38.78
60240;BME280;46102;39.012;-7.064;2023-02-28T00:34:45;98742.94;;;6.51;38.85
60240;BME280;46102;39.012;-7.064;2023-02-28T00:36:46;98746.84;;;6.44;38.64
60240;BME280;46102;39.012;-7.064;2023-02-28T00:38:49;98740.03;;;6.42;38.77
60240;BME280;46102;39.012;-7.064;2023-02-28T00:40:50;98750.44;;;6.35;39.03
60240;BME280;46102;39.012;-7.064;2023-02-28T00:42:50;98755.34;;;6.38;38.67
60240;BME280;46102;39.012;-7.064;2023-02-28T00:44:51;98750.94;;;6.42;38.58
60240;BME280;46102;39.012;-7.064;2023-02-28T00:46:52;98751.50;;;6.39;38.79
60240;BME280;46102;39.012;-7.064;2023-02-28T00:48:58;98757.25;;;6.37;38.83
60240;BME280;46102;39.012;-7.064;2023-02-28T00:50:59;98752.88;;;6.36;38.66
60240;BME280;46102;39.012;-7.064;2023-02-28T00:53:00;98756.13;;;6.38;38.52
60240;BME280;46102;39.012;-7.064;2023-02-28T00:55:01;98752.06;;;6.36;38.51
60240;BME280;46102;39.012;-7.064;2023-02-28T00:57:01;98753.47;;;6.33;38.73
60240;BME280;46102;39.012;-7.064;2023-02-28T00:59:02;98752.94;;;6.31;38.80
60240;BME280;46102;39.012;-7.064;2023-02-28T01:01:03;98757.53;;;6.36;38.79
60240;BME280;46102;39.012;-7.064;2023-02-28T01:03:05;98760.53;;;6.34;39.03
60240;BME280;46102;39.012;-7.064;2023-02-28T01:05:06;98754.28;;;6.34;38.74
60240;BME280;46102;39.012;-7.064;2023-02-28T01:07:07;98758.66;;;6.30;38.96
60240;BME280;46102;39.012;-7.064;2023-02-28T01:09:08;98767.63;;;6.30;39.27
60240;BME280;46102;39.012;-7.064;2023-02-28T01:11:11;98775.31;;;6.23;39.93
60240;BME280;46102;39.012;-7.064;2023-02-28T01:13:14;98775.63;;;6.16;39.71
60240;BME280;46102;39.012;-7.064;2023-02-28T01:15:15;98780.88;;;6.08;40.06
60240;BME280;46102;39.012;-7.064;2023-02-28T01:17:16;98788.53;;;6.00;40.01
60240;BME280;46102;39.012;-7.064;2023-02-28T01:19:16;98794.25;;;5.99;39.92
60240;BME280;46102;39.012;-7.064;2023-02-28T01:21:19;98791.53;;;5.94;40.08
60240;BME280;46102;39.012;-7.064;2023-02-28T01:23:21;98792.38;;;5.89;40.51
60240;BME280;46102;39.012;-7.064;2023-02-28T01:25:23;98797.81;;;5.89;40.18
60240;BME280;46102;39.012;-7.064;2023-02-28T01:27:24;98789.97;;;5.82;40.46
60240;BME280;46102;39.012;-7.064;2023-02-28T01:29:26;98787.50;;;5.86;40.04
60240;BME280;46102;39.012;-7.064;2023-02-28T01:31:27;98782.09;;;5.81;39.68
60240;BME280;46102;39.012;-7.064;2023-02-28T01:33:28;98784.28;;;5.79;40.41
60240;BME280;46102;39.012;-7.064;2023-02-28T01:35:32;98781.56;;;5.74;40.37
60240;BME280;46102;39.012;-7.064;2023-02-28T01:37:33;98782.66;;;5.73;40.13
60240;BME280;46102;39.012;-7.064;2023-02-28T01:39:34;98788.44;;;5.61;40.41
60240;BME280;46102;39.012;-7.064;2023-02-28T01:41:35;98786.03;;;5.54;40.74
60240;BME280;46102;39.012;-7.064;2023-02-28T01:46:06;98788.53;;;5.40;41.97
60240;BME280;46102;39.012;-7.064;2023-02-28T01:48:08;98781.72;;;5.38;41.38
60240;BME280;46102;39.012;-7.064;2023-02-28T01:50:14;98783.09;;;5.35;42.04
60240;BME280;46102;39.012;-7.064;2023-02-28T01:52:15;98785.00;;;5.35;41.35
60240;BME280;46102;39.012;-7.064;2023-02-28T01:54:22;98782.00;;;5.31;41.43
60240;BME280;46102;39.012;-7.064;2023-02-28T01:56:28;98779.56;;;5.35;41.94
60240;BME280;46102;39.012;-7.064;2023-02-28T01:58:30;98770.88;;;5.28;41.29
60240;BME280;46102;39.012;-7.064;2023-02-28T02:00:31;98773.31;;;5.24;42.05
60240;BME280;46102;39.012;-7.064;2023-02-28T02:02:32;98772.25;;;5.20;41.00
60240;BME280;46102;39.012;-7.064;2023-02-28T02:04:38;98772.25;;;5.15;41.66
60240;BME280;46102;39.012;-7.064;2023-02-28T02:06:43;98766.81;;;5.15;41.42
60240;BME280;46102;39.012;-7.064;2023-02-28T02:08:46;98760.84;;;5.13;41.28
60240;BME280;46102;39.012;-7.064;2023-02-28T02:10:55;98768.47;;;5.11;41.48
60240;BME280;46102;39.012;-7.064;2023-02-28T02:13:11;98767.69;;;5.00;42.02
60240;BME280;46102;39.012;-7.064;2023-02-28T02:15:24;98760.63;;;4.99;42.10
60240;BME280;46102;39.012;-7.064;2023-02-28T02:17:35;98765.50;;;5.07;41.57
60240;BME280;46102;39.012;-7.064;2023-02-28T02:19:44;98764.97;;;5.05;41.79
60240;BME280;46102;39.012;-7.064;2023-02-28T02:22:20;98759.53;;;4.95;42.35
60240;BME280;46102;39.012;-7.064;2023-02-28T02:34:52;98766.63;;;4.96;41.63
60240;BME280;46102;39.012;-7.064;2023-02-28T02:39:13;98764.97;;;4.90;41.95
60240;BME280;46102;39.012;-7.064;2023-02-28T02:41:23;98757.63;;;4.90;42.48
60240;BME280;46102;39.012;-7.064;2023-02-28T02:43:32;98756.31;;;4.83;42.39
60240;BME280;46102;39.012;-7.064;2023-02-28T02:45:42;98762.28;;;4.79;42.56
60240;BME280;46102;39.012;-7.064;2023-02-28T02:47:46;98755.22;;;4.73;42.63
60240;BME280;46102;39.012;-7.064;2023-02-28T02:49:51;98763.38;;;4.73;42.51
60240;BME280;46102;39.012;-7.064;2023-02-28T02:51:53;98769.34;;;4.70;42.57
60240;BME280;46102;39.012;-7.064;2023-02-28T02:56:02;98762.03;;;4.76;42.03
60240;BME280;46102;39.012;-7.064;2023-02-28T02:58:08;98754.94;;;4.70;42.88
60240;BME280;46102;39.012;-7.064;2023-02-28T03:00:11;98749.50;;;4.80;42.47
60240;BME280;46102;39.012;-7.064;2023-02-28T03:02:14;98757.41;;;4.61;42.73
60240;BME280;46102;39.012;-7.064;2023-02-28T03:04:20;98757.69;;;4.54;42.78
60240;BME280;46102;39.012;-7.064;2023-02-28T03:06:21;98754.41;;;4.63;42.54
60240;BME280;46102;39.012;-7.064;2023-02-28T03:08:22;98757.44;;;4.51;42.93
60240;BME280;46102;39.012;-7.064;2023-02-28T03:10:30;98764.19;;;4.43;43.24
60240;BME280;46102;39.012;-7.064;2023-02-28T03:12:48;98761.50;;;4.48;43.26
60240;BME280;46102;39.012;-7.064;2023-02-28T03:20:17;98758.50;;;4.40;43.12
60240;BME280;46102;39.012;-7.064;2023-02-28T03:22:52;98749.25;;;4.41;43.33
60240;BME280;46102;39.012;-7.064;2023-02-28T03:27:11;98749.53;;;4.34;43.86
60240;BME280;46102;39.012;-7.064;2023-02-28T03:29:43;98748.19;;;4.31;43.87
60240;BME280;46102;39.012;-7.064;2023-02-28T03:31:53;98752.81;;;4.31;43.57
60240;BME280;46102;39.012;-7.064;2023-02-28T03:34:04;98752.53;;;4.32;44.23
60240;BME280;46102;39.012;-7.064;2023-02-28T03:36:15;98761.47;;;4.28;43.68
60240;BME280;46102;39.012;-7.064;2023-02-28T03:40:49;98753.06;;;4.29;44.23
60240;BME280;46102;39.012;-7.064;2023-02-28T03:42:55;98750.63;;;4.23;44.53
60240;BME280;46102;39.012;-7.064;2023-02-28T03:45:00;98741.66;;;4.22;44.14
60240;BME280;46102;39.012;-7.064;2023-02-28T03:47:19;98741.94;;;4.26;43.65
60240;BME280;46102;39.012;-7.064;2023-02-28T03:49:28;98738.94;;;4.22;43.68
60240;BME280;46102;39.012;-7.064;2023-02-28T03:51:32;98742.72;;;4.16;44.70
60240;BME280;46102;39.012;-7.064;2023-02-28T03:53:41;98745.19;;;4.12;44.34
60240;BME280;46102;39.012;-7.064;2023-02-28T03:55:57;98738.66;;;4.13;44.43
60240;BME280;46102;39.012;-7.064;2023-02-28T03:58:07;98729.41;;;4.09;44.88
60240;BME280;46102;39.012;-7.064;2023-02-28T04:00:29;98736.22;;;4.02;44.56
60240;BME280;46102;39.012;-7.064;2023-02-28T04:02:31;98728.88;;;3.97;44.96
60240;BME280;46102;39.012;-7.064;2023-02-28T04:04:31;98724.00;;;4.04;44.63
60240;BME280;46102;39.012;-7.064;2023-02-28T04:06:33;98719.63;;;3.98;44.54
60240;BME280;46102;39.012;-7.064;2023-02-28T04:08:34;98721.28;;;3.99;45.38
60240;BME280;46102;39.012;-7.064;2023-02-28T04:10:35;98721.53;;;3.92;45.58
60240;BME280;46102;39.012;-7.064;2023-02-28T04:12:36;98730.22;;;3.84;45.65
60240;BME280;46102;39.012;-7.064;2023-02-28T04:14:36;98721.78;;;3.75;45.94
60240;BME280;46102;39.012;-7.064;2023-02-28T04:16:39;98719.91;;;3.81;45.86
60240;BME280;46102;39.012;-7.064;2023-02-28T04:18:42;98721.50;;;3.77;45.53
60240;BME280;46102;39.012;-7.064;2023-02-28T04:20:45;98732.63;;;3.75;45.66
60240;BME280;46102;39.012;-7.064;2023-02-28T04:22:46;98728.31;;;3.80;45.42
60240;BME280;46102;39.012;-7.064;2023-02-28T04:24:47;98734.28;;;3.77;45.80
60240;BME280;46102;39.012;-7.064;2023-02-28T04:26:50;98735.09;;;3.72;45.73
60240;BME280;46102;39.012;-7.064;2023-02-28T04:28:51;98726.91;;;3.67;46.05
60240;BME280;46102;39.012;-7.064;2023-02-28T04:30:56;98720.16;;;3.74;45.84
60240;BME280;46102;39.012;-7.064;2023-02-28T04:32:59;98725.84;;;3.78;45.03
60240;BME280;46102;39.012;-7.064;2023-02-28T04:35:00;98725.84;;;3.68;45.44
60240;BME280;46102;39.012;-7.064;2023-02-28T04:37:01;98723.13;;;3.63;45.94
60240;BME280;46102;39.012;-7.064;2023-02-28T04:39:03;98720.66;;;3.56;45.66
60240;BME280;46102;39.012;-7.064;2023-02-28T04:41:05;98724.19;;;3.67;46.01
60240;BME280;46102;39.012;-7.064;2023-02-28T04:43:06;98727.19;;;3.70;45.91
60240;BME280;46102;39.012;-7.064;2023-02-28T04:45:07;98732.63;;;3.65;45.96
60240;BME280;46102;39.012;-7.064;2023-02-28T04:47:10;98729.09;;;3.65;45.73
60240;BME280;46102;39.012;-7.064;2023-02-28T04:49:12;98730.97;;;3.59;45.88
60240;BME280;46102;39.012;-7.064;2023-02-28T04:51:15;98729.88;;;3.60;45.65
60240;BME280;46102;39.012;-7.064;2023-02-28T04:53:16;98725.50;;;3.49;45.65
60240;BME280;46102;39.012;-7.064;2023-02-28T04:55:17;98733.38;;;3.55;45.48
60240;BME280;46102;39.012;-7.064;2023-02-28T04:57:18;98731.50;;;3.56;45.52
60240;BME280;46102;39.012;-7.064;2023-02-28T04:59:18;98734.72;;;3.48;45.82
60240;BME280;46102;39.012;-7.064;2023-02-28T05:01:25;98729.06;;;3.49;45.59
60240;BME280;46102;39.012;-7.064;2023-02-28T05:03:26;98746.94;;;3.45;45.83
60240;BME280;46102;39.012;-7.064;2023-02-28T05:05:27;98745.34;;;3.54;45.76
60240;BME280;46102;39.012;-7.064;2023-02-28T05:07:28;98746.16;;;3.55;46.00
60240;BME280;46102;39.012;-7.064;2023-02-28T05:09:29;98752.91;;;3.52;45.59
60240;BME280;46102;39.012;-7.064;2023-02-28T05:11:32;98740.72;;;3.50;46.02
60240;BME280;46102;39.012;-7.064;2023-02-28T05:13:36;98736.09;;;3.50;45.53
60240;BME280;46102;39.012;-7.064;2023-02-28T05:15:37;98745.31;;;3.49;45.84
60240;BME280;46102;39.012;-7.064;2023-02-28T05:17:37;98749.91;;;3.49;45.88
60240;BME280;46102;39.012;-7.064;2023-02-28T05:19:38;98765.13;;;3.45;46.01
60240;BME280;46102;39.012;-7.064;2023-02-28T05:21:41;98760.19;;;3.42;46.30
60240;BME280;46102;39.012;-7.064;2023-02-28T05:23:48;98775.38;;;3.38;46.40
60240;BME280;46102;39.012;-7.064;2023-02-28T05:25:49;98774.00;;;3.35;46.79
60240;BME280;46102;39.012;-7.064;2023-02-28T05:27:49;98783.25;;;3.39;46.85
60240;BME280;46102;39.012;-7.064;2023-02-28T05:29:51;98784.09;;;3.45;46.46
60240;BME280;46102;39.012;-7.064;2023-02-28T05:31:51;98789.72;;;3.33;46.54
60240;BME280;46102;39.012;-7.064;2023-02-28T05:33:52;98786.75;;;3.29;47.07
60240;BME280;46102;39.012;-7.064;2023-02-28T05:35:53;98790.03;;;3.37;46.60
60240;BME280;46102;39.012;-7.064;2023-02-28T05:37:54;98789.22;;;3.41;46.14
60240;BME280;46102;39.012;-7.064;2023-02-28T05:39:55;98794.66;;;3.41;46.56
60240;BME280;46102;39.012;-7.064;2023-02-28T05:41:55;98797.09;;;3.43;46.55
60240;BME280;46102;39.012;-7.064;2023-02-28T05:43:57;98795.19;;;3.43;46.43
60240;BME280;46102;39.012;-7.064;2023-02-28T05:45:58;98793.59;;;3.47;46.54
60240;BME280;46102;39.012;-7.064;2023-02-28T05:47:59;98794.13;;;3.44;46.17
60240;BME280;46102;39.012;-7.064;2023-02-28T05:50:00;98810.91;;;3.36;46.41
60240;BME280;46102;39.012;-7.064;2023-02-28T05:52:01;98812.75;;;3.30;46.35
60240;BME280;46102;39.012;-7.064;2023-02-28T05:54:02;98818.75;;;3.38;46.32
60240;BME280;46102;39.012;-7.064;2023-02-28T05:56:03;98822.56;;;3.37;46.31
60240;BME280;46102;39.012;-7.064;2023-02-28T05:58:04;98819.28;;;3.29;46.77
60240;BME280;46102;39.012;-7.064;2023-02-28T06:00:05;98826.84;;;3.22;46.46
60240;BME280;46102;39.012;-7.064;2023-02-28T06:02:15;98839.56;;;3.22;46.67
60240;BME280;46102;39.012;-7.064;2023-02-28T06:04:18;98849.09;;;3.24;46.86
60240;BME280;46102;39.012;-7.064;2023-02-28T06:06:19;98856.94;;;3.26;46.46
60240;BME280;46102;39.012;-7.064;2023-02-28T06:08:20;98863.97;;;3.22;46.76
60240;BME280;46102;39.012;-7.064;2023-02-28T06:10:21;98857.22;;;3.24;46.77
60240;BME280;46102;39.012;-7.064;2023-02-28T06:12:22;98870.47;;;3.21;46.71
60240;BME280;46102;39.012;-7.064;2023-02-28T06:14:23;98864.81;;;3.22;46.36
60240;BME280;46102;39.012;-7.064;2023-02-28T06:16:24;98872.38;;;3.20;46.28
60240;BME280;46102;39.012;-7.064;2023-02-28T06:18:25;98880.53;;;3.25;46.46
60240;BME280;46102;39.012;-7.064;2023-02-28T06:20:26;98883.03;;;3.32;45.91
60240;BME280;46102;39.012;-7.064;2023-02-28T06:22:29;98888.69;;;3.30;45.90
60240;BME280;46102;39.012;-7.064;2023-02-28T06:24:31;98895.78;;;3.31;46.01
60240;BME280;46102;39.012;-7.064;2023-02-28T06:26:32;98904.75;;;3.37;45.81
60240;BME280;46102;39.012;-7.064;2023-02-28T06:28:33;98900.44;;;3.41;45.87
60240;BME280;46102;39.012;-7.064;2023-02-28T06:30:34;98894.19;;;3.36;46.08
60240;BME280;46102;39.012;-7.064;2023-02-28T06:32:34;98902.78;;;3.27;46.31
60240;BME280;46102;39.012;-7.064;2023-02-28T06:34:36;98914.66;;;3.21;46.28
60240;BME280;46102;39.012;-7.064;2023-02-28T06:36:40;98907.91;;;3.24;46.41
60240;BME280;46102;39.012;-7.064;2023-02-28T06:38:41;98911.41;;;3.19;46.63
60240;BME280;46102;39.012;-7.064;2023-02-28T06:40:42;98911.16;;;3.21;46.64
60240;BME280;46102;39.012;-7.064;2023-02-28T06:42:44;98912.50;;;3.18;46.96
60240;BME280;46102;39.012;-7.064;2023-02-28T06:44:45;98917.00;;;3.07;47.31
60240;BME280;46102;39.012;-7.064;2023-02-28T06:46:45;98929.16;;;3.00;47.46
60240;BME280;46102;39.012;-7.064;2023-02-28T06:48:46;98933.75;;;2.99;47.64
60240;BME280;46102;39.012;-7.064;2023-02-28T06:50:47;98925.97;;;3.08;47.50
60240;BME280;46102;39.012;-7.064;2023-02-28T06:52:48;98929.41;;;2.98;47.92
60240;BME280;46102;39.012;-7.064;2023-02-28T06:54:49;98926.66;;;2.93;48.05
60240;BME280;46102;39.012;-7.064;2023-02-28T06:57:00;98935.28;;;2.90;48.14
60240;BME280;46102;39.012;-7.064;2023-02-28T06:59:00;98946.44;;;2.94;47.82
60240;BME280;46102;39.012;-7.064;2023-02-28T07:01:02;98956.16;;;2.89;47.95
60240;BME280;46102;39.012;-7.064;2023-02-28T07:03:02;98966.78;;;2.96;48.00
60240;BME280;46102;39.012;-7.064;2023-02-28T07:05:04;98973.09;;;3.02;47.59
60240;BME280;46102;39.012;-7.064;2023-02-28T07:07:05;98959.81;;;3.05;47.52
60240;BME280;46102;39.012;-7.064;2023-02-28T07:09:06;98958.78;;;3.06;47.55
60240;BME280;46102;39.012;-7.064;2023-02-28T07:11:07;98955.53;;;3.09;47.45
60240;BME280;46102;39.012;-7.064;2023-02-28T07:13:08;98951.47;;;3.12;47.75
60240;BME280;46102;39.012;-7.064;2023-02-28T07:15:09;98944.72;;;3.15;47.93
60240;BME280;46102;39.012;-7.064;2023-02-28T07:17:10;98942.38;;;3.28;47.57
60240;BME280;46102;39.012;-7.064;2023-02-28T07:19:12;98927.94;;;3.60;47.34
60240;BME280;46102;39.012;-7.064;2023-02-28T07:21:13;98931.44;;;4.03;45.94
60240;BME280;46102;39.012;-7.064;2023-02-28T07:23:14;98931.03;;;4.37;45.33
60240;BME280;46102;39.012;-7.064;2023-02-28T07:25:15;98924.00;;;4.77;44.86
60240;BME280;46102;39.012;-7.064;2023-02-28T07:27:16;98920.22;;;5.19;43.13
60240;BME280;46102;39.012;-7.064;2023-02-28T07:29:24;98921.25;;;5.64;41.79
60240;BME280;46102;39.012;-7.064;2023-02-28T07:31:24;98924.44;;;5.92;41.93
60240;BME280;46102;39.012;-7.064;2023-02-28T07:33:25;98915.34;;;6.27;40.79
60240;BME280;46102;39.012;-7.064;2023-02-28T07:35:26;98920.06;;;6.61;39.75
60240;BME280;46102;39.012;-7.064;2023-02-28T07:37:27;98924.53;;;6.86;39.02
60240;BME280;46102;39.012;-7.064;2023-02-28T07:39:28;98920.09;;;6.95;39.07
60240;BME280;46102;39.012;-7.064;2023-02-28T07:41:28;98938.34;;;7.00;38.92
60240;BME280;46102;39.012;-7.064;2023-02-28T07:43:31;98944.31;;;7.07;38.90
60240;BME280;46102;39.012;-7.064;2023-02-28T07:45:32;98942.41;;;7.07;38.53
60240;BME280;46102;39.012;-7.064;2023-02-28T07:47:34;98938.88;;;7.07;38.63
60240;BME280;46102;39.012;-7.064;2023-02-28T07:49:36;98937.63;;;6.89;39.02
60240;BME280;46102;39.012;-7.064;2023-02-28T07:51:39;98932.28;;;6.68;39.06
60240;BME280;46102;39.012;-7.064;2023-02-28T07:53:39;98947.69;;;6.49;39.59
60240;BME280;46102;39.012;-7.064;2023-02-28T07:55:40;98957.03;;;6.33;39.59
60240;BME280;46102;39.012;-7.064;2023-02-28T07:57:41;98961.66;;;6.27;39.45
60240;BME280;46102;39.012;-7.064;2023-02-28T07:59:42;98962.78;;;6.21;39.88
60240;BME280;46102;39.012;-7.064;2023-02-28T08:01:43;98965.25;;;6.17;40.18
60240;BME280;46102;39.012;-7.064;2023-02-28T08:03:45;98968.00;;;6.17;40.47
60240;BME280;46102;39.012;-7.064;2023-02-28T08:05:47;98966.59;;;6.25;40.38
60240;BME280;46102;39.012;-7.064;2023-02-28T08:07:49;98972.31;;;6.29;40.43
60240;BME280;46102;39.012;-7.064;2023-02-28T08:09:50;98975.78;;;6.39;40.32
60240;BME280;46102;39.012;-7.064;2023-02-28T08:11:51;98968.91;;;6.52;40.08
60240;BME280;46102;39.012;-7.064;2023-02-28T08:13:51;98971.28;;;6.69;39.73
60240;BME280;46102;39.012;-7.064;2023-02-28T08:15:53;98973.91;;;6.84;39.30
60240;BME280;46102;39.012;-7.064;2023-02-28T08:17:55;98984.53;;;6.86;39.19
60240;BME280;46102;39.012;-7.064;2023-02-28T08:19:58;98980.44;;;6.88;38.78
60240;BME280;46102;39.012;-7.064;2023-02-28T08:21:59;98987.50;;;6.95;39.11
60240;BME280;46102;39.012;-7.064;2023-02-28T08:24:00;98980.69;;;6.92;38.89
60240;BME280;46102;39.012;-7.064;2023-02-28T08:26:02;98980.34;;;7.04;39.22
60240;BME280;46102;39.012;-7.064;2023-02-28T08:28:03;98988.63;;;7.28;38.54
60240;BME280;46102;39.012;-7.064;2023-02-28T08:30:04;98986.09;;;7.37;37.81
60240;BME280;46102;39.012;-7.064;2023-02-28T08:32:06;98986.00;;;7.47;38.19
60240;BME280;46102;39.012;-7.064;2023-02-28T08:34:10;98986.06;;;7.71;36.90
60240;BME280;46102;39.012;-7.064;2023-02-28T08:36:11;98986.44;;;7.88;36.57
60240;BME280;46102;39.012;-7.064;2023-02-28T08:38:12;98986.31;;;8.04;36.11
60240;BME280;46102;39.012;-7.064;2023-02-28T08:40:13;98991.97;;;8.07;36.44
60240;BME280;46102;39.012;-7.064;2023-02-28T08:42:23;98996.69;;;8.26;36.21
60240;BME280;46102;39.012;-7.064;2023-02-28T08:44:46;98985.84;;;8.45;35.60
60240;BME280;46102;39.012;-7.064;2023-02-28T08:47:01;98992.16;;;8.64;35.48
60240;BME280;46102;39.012;-7.064;2023-02-28T08:49:04;98988.25;;;8.70;34.75
60240;BME280;46102;39.012;-7.064;2023-02-28T08:51:09;98989.28;;;8.74;34.88
60240;BME280;46102;39.012;-7.064;2023-02-28T08:53:10;98993.06;;;8.79;34.42
60240;BME280;46102;39.012;-7.064;2023-02-28T08:55:11;98990.50;;;8.87;34.54
60240;BME280;46102;39.012;-7.064;2023-02-28T08:57:11;98995.00;;;8.97;34.17
60240;BME280;46102;39.012;-7.064;2023-02-28T08:59:13;98994.22;;;8.91;34.69
60240;BME280;46102;39.012;-7.064;2023-02-28T09:01:17;98988.31;;;8.84;35.22
60240;BME280;46102;39.012;-7.064;2023-02-28T09:03:18;98993.59;;;9.00;34.32
60240;BME280;46102;39.012;-7.064;2023-02-28T09:05:19;99002.25;;;9.26;34.57
60240;BME280;46102;39.012;-7.064;2023-02-28T09:07:19;99000.13;;;9.55;33.83
60240;BME280;46102;39.012;-7.064;2023-02-28T09:09:20;99004.41;;;9.62;33.44
60240;BME280;46102;39.012;-7.064;2023-02-28T09:11:21;99013.56;;;9.71;33.49
60240;BME280;46102;39.012;-7.064;2023-02-28T09:13:22;99005.50;;;9.61;33.47
60240;BME280;46102;39.012;-7.064;2023-02-28T09:15:23;99003.31;;;9.76;33.91
60240;BME280;46102;39.012;-7.064;2023-02-28T09:17:23;99007.50;;;9.88;33.31
60240;BME280;46102;39.012;-7.064;2023-02-28T09:19:24;99000.13;;;10.16;32.61
60240;BME280;46102;39.012;-7.064;2023-02-28T09:21:25;99008.38;;;10.16;32.96
60240;BME280;46102;39.012;-7.064;2023-02-28T09:23:26;99008.16;;;10.12;32.96
60240;BME280;46102;39.012;-7.064;2023-02-28T09:25:27;99007.84;;;10.28;32.73
60240;BME280;46102;39.012;-7.064;2023-02-28T09:27:27;99009.41;;;10.48;32.23
60240;BME280;46102;39.012;-7.064;2023-02-28T09:29:28;99005.44;;;10.40;31.83
60240;BME280;46102;39.012;-7.064;2023-02-28T09:31:29;99012.69;;;10.36;32.48
60240;BME280;46102;39.012;-7.064;2023-02-28T09:33:30;99016.00;;;10.47;32.18
60240;BME280;46102;39.012;-7.064;2023-02-28T09:35:31;99020.69;;;10.46;32.26
60240;BME280;46102;39.012;-7.064;2023-02-28T09:37:31;99012.97;;;10.34;32.70
60240;BME280;46102;39.012;-7.064;2023-02-28T09:39:32;99024.75;;;10.35;32.52
60240;BME280;46102;39.012;-7.064;2023-02-28T09:41:42;99016.13;;;10.41;32.20
60240;BME280;46102;39.012;-7.064;2023-02-28T09:43:56;99007.84;;;10.69;32.22
60240;BME280;46102;39.012;-7.064;2023-02-28T09:46:05;99015.97;;;10.88;31.94
60240;BME280;46102;39.012;-7.064;2023-02-28T09:48:17;99012.59;;;10.91;31.63
60240;BME280;46102;39.012;-7.064;2023-02-28T09:52:38;99000.75;;;11.18;31.21
60240;BME280;46102;39.012;-7.064;2023-02-28T09:54:39;98997.00;;;11.37;31.20
60240;BME280;46102;39.012;-7.064;2023-02-28T09:56:41;98991.03;;;11.57;31.17
60240;BME280;46102;39.012;-7.064;2023-02-28T10:01:08;98989.88;;;12.03;29.90
60240;BME280;46102;39.012;-7.064;2023-02-28T10:05:43;98994.06;;;11.78;29.72
60240;BME280;46102;39.012;-7.064;2023-02-28T10:08:11;98983.09;;;11.56;30.27
60240;BME280;46102;39.012;-7.064;2023-02-28T10:10:22;98982.59;;;11.54;30.25
60240;BME280;46102;39.012;-7.064;2023-02-28T10:12:26;98988.66;;;11.64;30.14
60240;BME280;46102;39.012;-7.064;2023-02-28T10:14:29;98979.31;;;11.74;29.86
60240;BME280;46102;39.012;-7.064;2023-02-28T10:16:46;98980.25;;;11.92;29.64
60240;BME280;46102;39.012;-7.064;2023-02-28T10:18:54;98973.56;;;12.07;29.90
60240;BME280;46102;39.012;-7.064;2023-02-28T10:20:55;98967.66;;;12.40;30.06
60240;BME280;46102;39.012;-7.064;2023-02-28T10:25:21;98967.44;;;12.85;29.18
60240;BME280;46102;39.012;-7.064;2023-02-28T10:27:30;98967.63;;;12.97;29.26
60240;BME280;46102;39.012;-7.064;2023-02-28T10:29:32;98954.34;;;13.17;28.74
60240;BME280;46102;39.012;-7.064;2023-02-28T10:31:38;98955.66;;;13.28;28.35
60240;BME280;46102;39.012;-7.064;2023-02-28T10:33:39;98963.72;;;13.50;28.11
60240;BME280;46102;39.012;-7.064;2023-02-28T10:35:40;98948.66;;;13.57;27.44
60240;BME280;46102;39.012;-7.064;2023-02-28T10:37:42;98947.53;;;13.49;27.60
60240;BME280;46102;39.012;-7.064;2023-02-28T10:39:44;98939.94;;;13.28;27.83
60240;BME280;46102;39.012;-7.064;2023-02-28T10:41:48;98949.66;;;13.17;28.18
60240;BME280;46102;39.012;-7.064;2023-02-28T10:43:49;98953.03;;;13.23;28.29
60240;BME280;46102;39.012;-7.064;2023-02-28T10:45:57;98954.34;;;13.51;27.37
60240;BME280;46102;39.012;-7.064;2023-02-28T10:48:02;98943.22;;;13.86;26.62
60240;BME280;46102;39.012;-7.064;2023-02-28T10:50:05;98945.78;;;13.91;26.90
60240;BME280;46102;39.012;-7.064;2023-02-28T10:52:09;98947.34;;;13.63;26.86
60240;BME280;46102;39.012;-7.064;2023-02-28T10:54:16;98955.41;;;13.77;27.09
60240;BME280;46102;39.012;-7.064;2023-02-28T10:56:21;98953.75;;;13.84;26.96
60240;BME280;46102;39.012;-7.064;2023-02-28T10:58:24;98950.63;;;14.03;26.42
60240;BME280;46102;39.012;-7.064;2023-02-28T11:00:32;98941.38;;;14.08;26.54
60240;BME280;46102;39.012;-7.064;2023-02-28T11:02:36;98938.06;;;14.23;26.38
60240;BME280;46102;39.012;-7.064;2023-02-28T11:04:38;98936.41;;;14.22;26.56
60240;BME280;46102;39.012;-7.064;2023-02-28T11:06:41;98930.31;;;14.16;26.63
60240;BME280;46102;39.012;-7.064;2023-02-28T11:08:52;98936.53;;;14.34;26.45
60240;BME280;46102;39.012;-7.064;2023-02-28T11:10:56;98930.41;;;14.50;26.32
60240;BME280;46102;39.012;-7.064;2023-02-28T11:12:58;98930.56;;;14.53;26.15
60240;BME280;46102;39.012;-7.064;2023-02-28T11:15:04;98924.56;;;14.81;25.84
60240;BME280;46102;39.012;-7.064;2023-02-28T11:17:22;98926.41;;;14.98;25.64
60240;BME280;46102;39.012;-7.064;2023-02-28T11:19:27;98920.84;;;15.19;25.60
60240;BME280;46102;39.012;-7.064;2023-02-28T11:21:33;98927.06;;;15.16;25.61
60240;BME280;46102;39.012;-7.064;2023-02-28T11:23:35;98925.72;;;15.01;25.19
60240;BME280;46102;39.012;-7.064;2023-02-28T11:25:38;98934.06;;;14.92;25.63
60240;BME280;46102;39.012;-7.064;2023-02-28T11:27:46;98927.34;;;15.02;25.35